createdAt,value
2018-01-06T00:00:10.894Z,10.30
2018-01-06T00:01:10.881Z,11.50
2018-01-06T00:02:10.871Z,11.60
2018-01-06T00:03:10.867Z,12.40
2018-01-06T00:04:10.846Z,12.40
2018-01-06T00:05:10.848Z,12.80
2018-01-06T00:06:10.820Z,11.60
2018-01-06T00:07:10.813Z,12.30
2018-01-06T00:08:10.800Z,17.00
2018-01-06T00:09:10.809Z,13.50
2018-01-06T00:10:10.776Z,15.50
2018-01-06T00:11:10.780Z,11.90
2018-01-06T00:12:10.752Z,15.40
2018-01-06T00:13:10.750Z,22.60
2018-01-06T00:14:10.728Z,14.00
2018-01-06T00:15:10.716Z,18.50
2018-01-06T00:16:10.705Z,9.40
2018-01-06T00:17:10.694Z,16.90
2018-01-06T00:18:10.698Z,30.10
2018-01-06T00:19:10.673Z,23.90
2018-01-06T00:20:10.665Z,33.20
2018-01-06T00:21:10.648Z,11.70
2018-01-06T00:22:10.636Z,18.10
2018-01-06T00:23:10.628Z,19.50
2018-01-06T00:24:10.614Z,20.20
2018-01-06T00:25:10.600Z,23.40
2018-01-06T00:26:10.591Z,14.90
2018-01-06T00:27:10.580Z,10.30
2018-01-06T00:28:10.560Z,10.60
2018-01-06T00:29:10.553Z,12.40
2018-01-06T00:30:10.542Z,10.90
2018-01-06T00:31:10.532Z,11.20
2018-01-06T00:32:10.520Z,11.70
2018-01-06T00:33:10.506Z,9.90
2018-01-06T00:34:10.499Z,11.10
2018-01-06T00:35:10.500Z,12.20
2018-01-06T00:36:10.474Z,11.60
2018-01-06T00:37:10.460Z,11.60
2018-01-06T00:38:10.447Z,13.00
2018-01-06T00:39:10.437Z,10.20
2018-01-06T00:40:10.424Z,20.80
2018-01-06T00:41:10.415Z,9.20
2018-01-06T00:42:10.398Z,14.80
2018-01-06T00:43:10.401Z,11.70
2018-01-06T00:44:10.377Z,10.10
2018-01-06T00:45:10.367Z,10.20
2018-01-06T00:46:10.352Z,9.90
2018-01-06T00:47:10.340Z,10.00
2018-01-06T00:48:10.390Z,10.90
2018-01-06T00:49:10.321Z,12.00
2018-01-06T00:50:10.305Z,11.80
2018-01-06T00:51:10.294Z,9.60
2018-01-06T00:52:10.281Z,11.90
2018-01-06T00:53:10.272Z,10.50
2018-01-06T00:54:10.259Z,10.70
2018-01-06T00:55:10.250Z,11.50
2018-01-06T00:56:10.236Z,11.20
2018-01-06T00:57:10.224Z,15.10
2018-01-06T00:58:10.209Z,15.60
2018-01-06T00:59:10.198Z,11.80
2018-01-06T01:00:10.189Z,14.60
2018-01-06T01:01:10.176Z,12.40
2018-01-06T01:02:10.166Z,12.10
2018-01-06T01:03:10.151Z,11.80
2018-01-06T01:04:10.140Z,12.00
2018-01-06T01:05:10.133Z,12.20
2018-01-06T01:06:10.115Z,13.20
2018-01-06T01:07:10.105Z,12.10
2018-01-06T01:08:10.090Z,13.00
2018-01-06T01:09:10.082Z,11.30
2018-01-06T01:10:10.070Z,13.10
2018-01-06T01:11:10.059Z,12.40
2018-01-06T01:12:10.038Z,12.20
2018-01-06T01:13:10.033Z,12.30
2018-01-06T01:14:10.024Z,11.00
2018-01-06T01:15:10.011Z,11.10
2018-01-06T01:16:10.007Z,11.40
2018-01-06T01:17:09.986Z,11.00
2018-01-06T01:18:09.978Z,11.00
2018-01-06T01:19:09.961Z,10.40
2018-01-06T01:20:09.945Z,12.60
2018-01-06T01:21:09.938Z,10.70
2018-01-06T01:22:09.926Z,11.50
2018-01-06T01:23:09.912Z,12.60
2018-01-06T01:24:09.901Z,12.30
2018-01-06T01:25:09.918Z,12.50
2018-01-06T01:26:09.875Z,13.40
2018-01-06T01:27:09.871Z,13.00
2018-01-06T01:28:09.853Z,11.80
2018-01-06T01:29:09.843Z,11.20
2018-01-06T01:30:09.829Z,12.10
2018-01-06T01:31:09.817Z,12.40
2018-01-06T01:32:09.805Z,14.60
2018-01-06T01:33:09.794Z,13.20
2018-01-06T01:34:09.782Z,13.90
2018-01-06T01:35:09.788Z,12.90
2018-01-06T01:36:09.760Z,13.20
2018-01-06T01:37:09.745Z,13.00
2018-01-06T01:38:09.733Z,13.50
2018-01-06T01:39:09.712Z,13.60
2018-01-06T01:40:09.709Z,12.50
2018-01-06T01:41:09.701Z,14.30
2018-01-06T01:42:09.686Z,22.70
2018-01-06T01:43:09.674Z,24.90
2018-01-06T01:44:09.664Z,22.80
2018-01-06T01:45:09.651Z,26.30
2018-01-06T01:46:09.639Z,17.10
2018-01-06T01:47:09.629Z,21.70
2018-01-06T01:48:09.663Z,44.00
2018-01-06T01:49:09.665Z,17.50
2018-01-06T01:50:09.584Z,15.10
2018-01-06T01:51:09.580Z,36.80
2018-01-06T01:52:09.571Z,25.50
2018-01-06T01:53:09.558Z,19.10
2018-01-06T01:54:09.544Z,20.80
2018-01-06T01:55:09.532Z,17.10
2018-01-06T01:56:09.519Z,23.00
2018-01-06T01:57:09.498Z,22.20
2018-01-06T01:58:09.499Z,14.00
2018-01-06T01:59:09.486Z,18.40
2018-01-06T02:00:09.472Z,23.80
2018-01-06T02:01:09.459Z,36.50
2018-01-06T02:02:09.446Z,17.60
2018-01-06T02:03:09.435Z,13.90
2018-01-06T02:04:09.462Z,20.20
2018-01-06T02:05:09.413Z,21.10
2018-01-06T02:06:09.399Z,30.40
2018-01-06T02:07:09.387Z,24.30
2018-01-06T02:08:09.379Z,41.00
2018-01-06T02:09:09.367Z,15.20
2018-01-06T02:10:09.353Z,15.70
2018-01-06T02:11:09.340Z,18.50
2018-01-06T02:12:09.339Z,20.20
2018-01-06T02:13:09.317Z,34.10
2018-01-06T02:14:09.302Z,25.90
2018-01-06T02:15:09.291Z,16.00
2018-01-06T02:16:09.280Z,14.00
2018-01-06T02:17:09.270Z,14.00
2018-01-06T02:18:09.294Z,14.90
2018-01-06T02:19:09.248Z,15.60
2018-01-06T02:20:09.234Z,14.50
2018-01-06T02:21:09.220Z,14.30
2018-01-06T02:22:09.210Z,14.70
2018-01-06T02:23:09.187Z,16.00
2018-01-06T02:24:09.184Z,18.70
2018-01-06T02:25:09.235Z,53.70
2018-01-06T02:26:09.165Z,30.70
2018-01-06T02:27:09.146Z,23.70
2018-01-06T02:28:09.139Z,14.50
2018-01-06T02:29:09.123Z,14.50
2018-01-06T02:30:09.111Z,14.80
2018-01-06T02:31:09.100Z,15.40
2018-01-06T02:32:09.089Z,14.90
2018-01-06T02:33:09.083Z,14.30
2018-01-06T02:34:09.065Z,16.50
2018-01-06T02:35:09.056Z,15.40
2018-01-06T02:36:09.041Z,13.80
2018-01-06T02:37:09.032Z,15.00
2018-01-06T02:38:09.018Z,13.90
2018-01-06T02:39:09.004Z,18.40
2018-01-06T02:40:08.996Z,20.70
2018-01-06T02:41:08.980Z,19.50
2018-01-06T02:42:08.966Z,22.90
2018-01-06T02:43:08.955Z,46.80
2018-01-06T02:44:08.946Z,31.30
2018-01-06T02:45:08.922Z,18.80
2018-01-06T02:46:08.921Z,17.20
2018-01-06T02:47:08.908Z,17.50
2018-01-06T02:48:08.927Z,16.60
2018-01-06T02:49:08.878Z,17.60
2018-01-06T02:50:08.884Z,15.20
2018-01-06T02:51:08.861Z,15.50
2018-01-06T02:52:08.847Z,15.10
2018-01-06T02:53:08.836Z,15.60
2018-01-06T02:54:08.823Z,15.00
2018-01-06T02:55:08.811Z,15.20
2018-01-06T02:56:08.806Z,15.20
2018-01-06T02:57:08.790Z,19.00
2018-01-06T02:58:08.773Z,19.50
2018-01-06T02:59:08.766Z,14.50
2018-01-06T03:00:08.750Z,19.10
2018-01-06T03:01:08.739Z,15.60
2018-01-06T03:02:08.726Z,14.50
2018-01-06T03:03:08.729Z,20.30
2018-01-06T03:04:08.704Z,20.50
2018-01-06T03:05:08.691Z,25.80
2018-01-06T03:06:08.676Z,29.30
2018-01-06T03:07:08.663Z,22.10
2018-01-06T03:08:08.655Z,13.70
2018-01-06T03:09:08.641Z,24.90
2018-01-06T03:10:08.632Z,16.20
2018-01-06T03:11:08.617Z,36.80
2018-01-06T03:12:08.608Z,32.10
2018-01-06T03:13:08.595Z,32.60
2018-01-06T03:14:08.581Z,35.20
2018-01-06T03:15:08.568Z,15.00
2018-01-06T03:16:08.557Z,18.60
2018-01-06T03:17:08.546Z,32.10
2018-01-06T03:18:08.609Z,24.90
2018-01-06T03:19:08.521Z,14.20
2018-01-06T03:20:08.544Z,19.90
2018-01-06T03:21:08.497Z,17.00
2018-01-06T03:22:08.484Z,15.70
2018-01-06T03:23:08.470Z,13.90
2018-01-06T03:24:08.459Z,17.70
2018-01-06T03:25:08.446Z,15.60
2018-01-06T03:26:08.446Z,14.40
2018-01-06T03:27:08.421Z,15.90
2018-01-06T03:28:08.411Z,16.50
2018-01-06T03:29:08.401Z,15.80
2018-01-06T03:30:08.389Z,15.00
2018-01-06T03:31:08.379Z,14.80
2018-01-06T03:32:08.361Z,15.80
2018-01-06T03:33:08.400Z,15.40
2018-01-06T03:34:08.339Z,14.80
2018-01-06T03:35:08.326Z,16.10
2018-01-06T03:36:08.314Z,13.50
2018-01-06T03:37:08.304Z,14.90
2018-01-06T03:38:08.292Z,14.30
2018-01-06T03:39:08.278Z,14.20
2018-01-06T03:40:09.329Z,14.10
2018-01-06T03:41:08.253Z,15.10
2018-01-06T03:42:08.240Z,16.00
2018-01-06T03:43:08.232Z,13.80
2018-01-06T03:44:08.216Z,14.30
2018-01-06T03:45:08.205Z,15.00
2018-01-06T03:46:08.192Z,15.20
2018-01-06T03:47:08.179Z,13.90
2018-01-06T03:48:08.179Z,16.70
2018-01-06T03:49:08.155Z,15.00
2018-01-06T03:50:08.149Z,15.60
2018-01-06T03:51:08.132Z,16.00
2018-01-06T03:52:08.118Z,17.80
2018-01-06T03:53:08.111Z,19.70
2018-01-06T03:54:08.096Z,17.50
2018-01-06T03:55:08.083Z,17.30
2018-01-06T03:56:08.068Z,13.80
2018-01-06T03:57:08.060Z,14.30
2018-01-06T03:58:08.061Z,14.40
2018-01-06T03:59:08.034Z,15.40
2018-01-06T04:00:08.025Z,15.30
2018-01-06T04:01:08.009Z,15.60
2018-01-06T04:02:08.002Z,14.30
2018-01-06T04:03:08.004Z,13.30
2018-01-06T04:04:07.974Z,19.70
2018-01-06T04:05:07.966Z,16.00
2018-01-06T04:06:07.947Z,16.20
2018-01-06T04:07:07.935Z,16.50
2018-01-06T04:08:07.924Z,15.20
2018-01-06T04:09:07.911Z,13.90
2018-01-06T04:10:07.898Z,17.40
2018-01-06T04:11:07.888Z,17.90
2018-01-06T04:12:07.876Z,16.80
2018-01-06T04:13:07.866Z,17.10
2018-01-06T04:14:07.853Z,15.00
2018-01-06T04:15:07.838Z,17.30
2018-01-06T04:16:07.827Z,16.70
2018-01-06T04:17:07.813Z,16.90
2018-01-06T04:18:07.835Z,15.80
2018-01-06T04:19:07.789Z,16.40
2018-01-06T04:20:07.777Z,20.30
2018-01-06T04:21:07.764Z,17.20
2018-01-06T04:22:07.752Z,16.20
2018-01-06T04:23:07.741Z,17.50
2018-01-06T04:24:07.728Z,21.40
2018-01-06T04:25:07.716Z,21.10
2018-01-06T04:26:07.704Z,19.60
2018-01-06T04:27:07.694Z,18.40
2018-01-06T04:28:07.682Z,21.10
2018-01-06T04:29:07.669Z,19.10
2018-01-06T04:30:07.657Z,21.00
2018-01-06T04:31:07.644Z,18.80
2018-01-06T04:32:07.632Z,17.00
2018-01-06T04:33:07.712Z,18.20
2018-01-06T04:34:07.607Z,30.10
2018-01-06T04:35:07.604Z,20.20
2018-01-06T04:36:07.581Z,17.10
2018-01-06T04:37:07.571Z,18.70
2018-01-06T04:38:07.558Z,24.00
2018-01-06T04:39:07.547Z,17.30
2018-01-06T04:40:07.536Z,22.50
2018-01-06T04:41:07.527Z,19.90
2018-01-06T04:42:07.514Z,32.80
2018-01-06T04:43:07.495Z,34.00
2018-01-06T04:44:07.485Z,42.80
2018-01-06T04:45:07.471Z,20.70
2018-01-06T04:46:07.463Z,33.70
2018-01-06T04:47:07.450Z,28.10
2018-01-06T04:48:07.458Z,31.10
2018-01-06T04:49:07.428Z,25.10
2018-01-06T04:50:07.414Z,27.50
2018-01-06T04:51:07.400Z,28.90
2018-01-06T04:52:07.391Z,21.90
2018-01-06T04:53:07.375Z,17.00
2018-01-06T04:54:07.363Z,18.30
2018-01-06T04:55:07.373Z,17.60
2018-01-06T04:56:07.339Z,21.80
2018-01-06T04:57:07.329Z,16.70
2018-01-06T04:58:07.312Z,19.00
2018-01-06T04:59:07.306Z,17.70
2018-01-06T05:00:07.288Z,17.70
2018-01-06T05:01:07.283Z,18.80
2018-01-06T05:02:07.266Z,21.10
2018-01-06T05:03:07.254Z,13.80
2018-01-06T05:04:07.240Z,15.30
2018-01-06T05:05:07.231Z,15.50
2018-01-06T05:06:07.214Z,17.50
2018-01-06T05:07:07.254Z,15.30
2018-01-06T05:08:07.190Z,14.20
2018-01-06T05:09:07.180Z,13.70
2018-01-06T05:10:07.182Z,12.60
2018-01-06T05:11:07.154Z,13.60
2018-01-06T05:12:07.143Z,12.40
2018-01-06T05:13:07.130Z,12.60
2018-01-06T05:14:07.116Z,12.30
2018-01-06T05:15:07.107Z,13.30
2018-01-06T05:16:07.094Z,13.50
2018-01-06T05:17:07.080Z,12.70
2018-01-06T05:18:07.078Z,13.80
2018-01-06T05:19:07.055Z,11.90
2018-01-06T05:20:07.045Z,11.80
2018-01-06T05:21:07.032Z,12.30
2018-01-06T05:22:07.017Z,10.90
2018-01-06T05:23:07.001Z,12.60
2018-01-06T05:24:06.992Z,12.20
2018-01-06T05:25:06.983Z,12.00
2018-01-06T05:26:06.966Z,11.40
2018-01-06T05:27:06.955Z,11.80
2018-01-06T05:28:06.945Z,9.90
2018-01-06T05:29:06.932Z,10.50
2018-01-06T05:30:06.921Z,11.00
2018-01-06T05:31:06.909Z,11.50
2018-01-06T05:32:06.889Z,9.60
2018-01-06T05:33:06.887Z,13.90
2018-01-06T05:34:06.869Z,10.80
2018-01-06T05:35:06.867Z,10.60
2018-01-06T05:36:06.845Z,11.30
2018-01-06T05:37:06.838Z,13.10
2018-01-06T05:38:06.826Z,10.60
2018-01-06T05:39:06.810Z,8.90
2018-01-06T05:40:06.812Z,11.30
2018-01-06T05:41:06.786Z,12.10
2018-01-06T05:42:06.773Z,11.60
2018-01-06T05:43:06.759Z,10.10
2018-01-06T05:44:06.745Z,12.00
2018-01-06T05:45:06.736Z,13.70
2018-01-06T05:46:06.723Z,12.50
2018-01-06T05:47:06.712Z,13.50
2018-01-06T05:48:06.721Z,15.00
2018-01-06T05:49:06.687Z,11.90
2018-01-06T05:50:06.673Z,11.80
2018-01-06T05:51:06.660Z,11.80
2018-01-06T05:52:06.648Z,12.80
2018-01-06T05:53:06.637Z,13.70
2018-01-06T05:54:06.627Z,11.00
2018-01-06T05:55:06.612Z,10.40
2018-01-06T05:56:06.602Z,10.40
2018-01-06T05:57:06.587Z,10.40
2018-01-06T05:58:06.573Z,12.80
2018-01-06T05:59:06.561Z,10.00
2018-01-06T06:00:06.549Z,14.40
2018-01-06T06:01:06.538Z,9.30
2018-01-06T06:02:06.524Z,9.80
2018-01-06T06:03:06.517Z,10.10
2018-01-06T06:04:06.499Z,10.30
2018-01-06T06:05:06.493Z,8.90
2018-01-06T06:06:06.478Z,8.60
2018-01-06T06:07:06.462Z,9.70
2018-01-06T06:08:06.450Z,8.60
2018-01-06T06:09:06.450Z,9.10
2018-01-06T06:10:06.427Z,9.20
2018-01-06T06:11:06.414Z,8.10
2018-01-06T06:12:06.412Z,8.20
2018-01-06T06:13:06.390Z,7.30
2018-01-06T06:14:06.378Z,8.90
2018-01-06T06:15:06.382Z,8.00
2018-01-06T06:16:06.354Z,7.40
2018-01-06T06:17:06.340Z,8.80
2018-01-06T06:18:06.337Z,7.80
2018-01-06T06:19:06.319Z,9.10
2018-01-06T06:20:06.305Z,7.10
2018-01-06T06:21:06.291Z,7.30
2018-01-06T06:22:06.278Z,7.70
2018-01-06T06:23:06.267Z,7.70
2018-01-06T06:24:06.255Z,8.40
2018-01-06T06:25:06.244Z,7.90
2018-01-06T06:26:06.230Z,10.80
2018-01-06T06:27:06.226Z,7.00
2018-01-06T06:28:06.202Z,8.70
2018-01-06T06:29:06.194Z,7.00
2018-01-06T06:30:06.180Z,8.40
2018-01-06T06:31:06.168Z,7.50
2018-01-06T06:32:06.154Z,7.70
2018-01-06T06:33:06.192Z,7.20
2018-01-06T06:34:06.129Z,6.70
2018-01-06T06:35:06.121Z,8.10
2018-01-06T06:36:06.105Z,6.90
2018-01-06T06:37:06.094Z,6.40
2018-01-06T06:38:06.079Z,6.70
2018-01-06T06:39:06.068Z,7.80
2018-01-06T06:40:06.056Z,7.90
2018-01-06T06:41:06.044Z,7.60
2018-01-06T06:42:06.029Z,7.10
2018-01-06T06:43:06.014Z,7.70
2018-01-06T06:44:06.003Z,7.70
2018-01-06T06:45:05.992Z,8.10
2018-01-06T06:46:05.987Z,7.90
2018-01-06T06:47:05.972Z,8.70
2018-01-06T06:48:05.983Z,6.90
2018-01-06T06:49:05.943Z,7.50
2018-01-06T06:50:05.928Z,7.40
2018-01-06T06:51:05.918Z,7.40
2018-01-06T06:52:05.902Z,7.60
2018-01-06T06:53:05.891Z,7.10
2018-01-06T06:54:05.868Z,7.30
2018-01-06T06:55:05.864Z,7.30
2018-01-06T06:56:05.853Z,7.30
2018-01-06T06:57:05.838Z,6.40
2018-01-06T06:58:05.825Z,6.70
2018-01-06T06:59:05.813Z,6.90
2018-01-06T07:00:05.798Z,6.70
2018-01-06T07:01:05.790Z,6.60
2018-01-06T07:02:05.773Z,6.10
2018-01-06T07:03:05.760Z,6.10
2018-01-06T07:04:05.751Z,6.80
2018-01-06T07:05:05.734Z,6.30
2018-01-06T07:06:05.720Z,6.60
2018-01-06T07:07:05.707Z,6.10
2018-01-06T07:08:05.698Z,5.80
2018-01-06T07:09:05.680Z,5.30
2018-01-06T07:10:05.667Z,5.90
2018-01-06T07:11:05.653Z,5.70
2018-01-06T07:12:05.642Z,6.00
2018-01-06T07:13:05.629Z,5.60
2018-01-06T07:14:05.614Z,5.30
2018-01-06T07:15:05.596Z,5.10
2018-01-06T07:16:05.587Z,5.20
2018-01-06T07:17:05.575Z,5.20
2018-01-06T07:18:05.569Z,4.80
2018-01-06T07:19:05.550Z,5.20
2018-01-06T07:20:05.535Z,4.90
2018-01-06T07:21:05.541Z,5.20
2018-01-06T07:22:05.509Z,4.80
2018-01-06T07:23:05.490Z,4.70
2018-01-06T07:24:05.538Z,4.90
2018-01-06T07:25:05.468Z,4.80
2018-01-06T07:26:05.458Z,4.50
2018-01-06T07:27:05.442Z,4.60
2018-01-06T07:28:05.429Z,4.70
2018-01-06T07:29:05.415Z,4.90
2018-01-06T07:30:05.402Z,4.60
2018-01-06T07:31:05.388Z,4.70
2018-01-06T07:32:05.382Z,4.80
2018-01-06T07:33:05.362Z,4.50
2018-01-06T07:34:05.352Z,4.40
2018-01-06T07:35:05.336Z,4.50
2018-01-06T07:36:05.322Z,5.10
2018-01-06T07:37:05.310Z,4.40
2018-01-06T07:38:05.297Z,4.10
2018-01-06T07:39:05.282Z,4.90
2018-01-06T07:40:05.296Z,4.30
2018-01-06T07:41:05.255Z,4.30
2018-01-06T07:42:05.240Z,4.30
2018-01-06T07:43:05.233Z,4.20
2018-01-06T07:44:05.214Z,4.30
2018-01-06T07:45:05.224Z,4.30
2018-01-06T07:46:05.187Z,4.80
2018-01-06T07:47:05.173Z,4.60
2018-01-06T07:49:41.455Z,4.30
2018-01-06T08:59:24.802Z,4.60
2018-01-06T09:35:24.879Z,10.50
2018-01-06T09:36:24.845Z,9.70
2018-01-06T09:38:17.789Z,9.60
2018-01-06T09:39:17.747Z,9.70
2018-01-06T09:41:10.652Z,9.40
2018-01-06T09:42:10.640Z,9.20
2018-01-06T09:44:03.557Z,9.30
2018-01-06T09:45:03.528Z,9.30
2018-01-06T09:46:56.426Z,8.90
2018-01-06T09:47:56.408Z,9.00
2018-01-06T09:49:49.326Z,9.30
2018-01-06T09:50:49.300Z,9.30
2018-01-06T09:52:42.259Z,9.60
2018-01-06T09:53:42.210Z,9.40
2018-01-06T09:55:35.140Z,9.10
2018-01-06T09:56:35.125Z,9.70
2018-01-06T09:58:28.012Z,9.60
2018-01-06T09:59:28.010Z,9.70
2018-01-06T10:01:20.899Z,9.60
2018-01-06T10:02:20.870Z,9.70
2018-01-06T10:04:13.768Z,9.20
2018-01-06T10:05:13.791Z,9.60
2018-01-06T10:07:06.632Z,9.00
2018-01-06T10:08:06.606Z,9.20
2018-01-06T10:09:59.495Z,9.00
2018-01-06T10:10:59.478Z,9.60
2018-01-06T10:12:52.380Z,9.80
2018-01-06T10:13:52.367Z,9.30
2018-01-06T10:15:45.240Z,9.40
2018-01-06T10:16:45.219Z,9.20
2018-01-06T10:18:38.108Z,9.60
2018-01-06T10:19:38.088Z,9.60
2018-01-06T10:21:30.996Z,9.90
2018-01-06T10:22:30.965Z,10.10
2018-01-06T10:24:23.876Z,9.60
2018-01-06T10:25:23.853Z,9.60
2018-01-06T10:27:16.765Z,10.00
2018-01-06T10:28:16.733Z,10.40
2018-01-06T10:30:09.673Z,9.80
2018-01-06T10:31:09.593Z,10.00
2018-01-06T10:33:02.480Z,10.10
2018-01-06T10:34:02.461Z,10.60
2018-01-06T10:35:55.363Z,9.80
2018-01-06T10:36:55.330Z,10.40
2018-01-06T10:38:48.209Z,10.60
2018-01-06T10:39:48.200Z,11.10
2018-01-06T10:41:41.148Z,11.00
2018-01-06T10:42:41.146Z,10.60
2018-01-06T10:44:34.020Z,10.70
2018-01-06T10:45:33.991Z,10.40
2018-01-06T10:47:26.898Z,11.30
2018-01-06T10:48:26.869Z,11.10
2018-01-06T10:50:19.748Z,11.20
2018-01-06T10:51:19.732Z,10.80
2018-01-06T10:53:12.637Z,11.50
2018-01-06T10:54:12.608Z,12.10
2018-01-06T10:56:05.528Z,12.00
2018-01-06T10:57:05.469Z,11.30
2018-01-06T10:58:58.353Z,10.50
2018-01-06T10:59:58.330Z,10.80
2018-01-06T11:01:51.222Z,12.10
2018-01-06T11:02:51.198Z,11.90
2018-01-06T11:04:44.110Z,11.30
2018-01-06T11:05:44.095Z,11.30
2018-01-06T11:07:37.002Z,11.90
2018-01-06T11:08:36.973Z,12.00
2018-01-06T11:10:29.889Z,12.10
2018-01-06T11:11:29.839Z,11.80
2018-01-06T11:13:22.756Z,11.10
2018-01-06T11:14:22.697Z,11.70
2018-01-06T11:16:15.670Z,10.90
2018-01-06T11:17:15.645Z,11.90
2018-01-06T11:19:08.561Z,11.10
2018-01-06T11:20:08.512Z,11.30
2018-01-06T11:22:01.398Z,11.60
2018-01-06T11:23:01.395Z,11.00
2018-01-06T11:24:54.328Z,11.50
2018-01-06T11:25:54.303Z,11.50
2018-01-06T11:27:47.208Z,11.40
2018-01-06T11:28:47.196Z,11.50
2018-01-06T11:30:40.107Z,11.30
2018-01-06T11:31:40.049Z,11.10
2018-01-06T11:33:33.004Z,12.70
2018-01-06T11:34:33.025Z,12.00
2018-01-06T11:36:25.854Z,11.30
2018-01-06T11:37:25.825Z,11.00
2018-01-06T11:39:18.739Z,11.70
2018-01-06T11:40:18.720Z,11.40
2018-01-06T11:42:11.651Z,11.40
2018-01-06T11:43:11.652Z,10.80
2018-01-06T11:45:04.509Z,11.60
2018-01-06T11:46:04.473Z,11.50
2018-01-06T11:47:57.366Z,11.60
2018-01-06T11:48:57.357Z,11.80
2018-01-06T11:50:50.235Z,12.20
2018-01-06T11:51:50.210Z,11.80
2018-01-06T11:53:43.111Z,12.30
2018-01-06T11:54:43.095Z,13.10
2018-01-06T11:56:35.995Z,12.50
2018-01-06T11:57:36.028Z,12.60
2018-01-06T11:59:28.859Z,12.60
2018-01-06T12:00:28.843Z,11.70
2018-01-06T12:02:21.762Z,12.80
2018-01-06T12:03:21.732Z,12.70
2018-01-06T12:05:14.650Z,12.60
2018-01-06T12:06:14.625Z,12.50
2018-01-06T12:08:07.529Z,12.70
2018-01-06T12:09:07.506Z,12.60
2018-01-06T12:11:00.400Z,12.10
2018-01-06T12:12:00.374Z,12.90
2018-01-06T12:13:53.250Z,13.00
2018-01-06T12:14:53.251Z,12.00
2018-01-06T12:16:46.168Z,12.00
2018-01-06T12:17:46.109Z,12.90
2018-01-06T12:19:39.010Z,12.40
2018-01-06T12:20:38.978Z,12.10
2018-01-06T12:22:31.872Z,12.00
2018-01-06T12:23:31.846Z,11.60
2018-01-06T12:25:24.727Z,11.20
2018-01-06T12:26:24.707Z,12.00
2018-01-06T12:28:17.604Z,10.90
2018-01-06T12:29:17.575Z,11.30
2018-01-06T12:31:10.472Z,11.30
2018-01-06T12:32:10.450Z,11.20
2018-01-06T12:34:03.363Z,10.80
2018-01-06T12:35:03.337Z,11.20
2018-01-06T12:36:56.222Z,10.80
2018-01-06T12:37:56.200Z,10.90
2018-01-06T12:39:49.202Z,11.30
2018-01-06T12:40:49.224Z,11.20
2018-01-06T12:42:41.959Z,9.70
2018-01-06T12:43:41.990Z,10.00
2018-01-06T12:45:34.847Z,10.30
2018-01-06T12:46:34.818Z,10.50
2018-01-06T12:48:27.728Z,10.40
2018-01-06T12:49:27.713Z,10.30
2018-01-06T12:51:20.604Z,9.50
2018-01-06T12:52:20.579Z,9.70
2018-01-06T12:54:13.464Z,9.50
2018-01-06T12:55:13.449Z,9.90
2018-01-06T12:57:06.393Z,10.10
2018-01-06T12:58:06.360Z,9.80
2018-01-06T12:59:59.252Z,9.70
2018-01-06T13:00:59.227Z,10.10
2018-01-06T13:02:52.222Z,9.60
2018-01-06T13:03:52.230Z,9.20
2018-01-06T13:05:45.081Z,9.40
2018-01-06T13:06:45.042Z,9.00
2018-01-06T13:08:37.961Z,9.10
2018-01-06T13:09:37.942Z,8.60
2018-01-06T13:11:30.861Z,8.90
2018-01-06T13:12:30.832Z,8.60
2018-01-06T13:14:23.718Z,9.10
2018-01-06T13:15:23.692Z,8.30
2018-01-06T13:17:16.597Z,8.40
2018-01-06T13:18:16.558Z,8.50
2018-01-06T13:20:09.538Z,8.00
2018-01-06T13:21:09.473Z,8.20
2018-01-06T13:23:02.381Z,8.30
2018-01-06T13:24:02.343Z,8.30
2018-01-06T13:25:55.222Z,8.70
2018-01-06T13:26:55.202Z,8.50
2018-01-06T13:28:48.150Z,8.50
2018-01-06T13:29:48.115Z,8.90
2018-01-06T13:31:41.001Z,8.40
2018-01-06T13:32:40.977Z,8.60
2018-01-06T13:34:33.881Z,9.10
2018-01-06T13:35:33.847Z,9.20
2018-01-06T13:37:26.732Z,8.30
2018-01-06T13:38:26.733Z,9.00
2018-01-06T13:40:19.640Z,7.90
2018-01-06T13:41:19.615Z,7.60
2018-01-06T13:43:12.507Z,7.40
2018-01-06T13:44:12.490Z,8.00
2018-01-06T13:46:05.399Z,7.40
2018-01-06T13:47:05.372Z,23.60
2018-01-06T13:48:58.283Z,13.80
2018-01-06T13:49:58.280Z,16.40
2018-01-06T13:51:51.231Z,14.30
2018-01-06T13:52:51.165Z,13.10
2018-01-06T13:54:44.049Z,14.30
2018-01-06T13:55:44.035Z,14.80
2018-01-06T13:57:36.968Z,12.30
2018-01-06T13:58:36.938Z,11.80
2018-01-06T14:00:29.839Z,11.00
2018-01-06T14:01:29.820Z,11.00
2018-01-06T14:03:22.717Z,11.30
2018-01-06T14:04:22.686Z,10.40
2018-01-06T14:06:15.602Z,9.70
2018-01-06T14:07:15.589Z,10.10
2018-01-06T14:09:08.504Z,9.90
2018-01-06T14:10:08.476Z,9.60
2018-01-06T14:12:01.372Z,9.00
2018-01-06T14:13:01.347Z,9.00
2018-01-06T14:14:54.236Z,8.80
2018-01-06T14:15:54.208Z,8.50
2018-01-06T14:17:47.168Z,9.00
2018-01-06T14:18:47.148Z,8.40
2018-01-06T14:20:40.060Z,8.30
2018-01-06T14:21:40.021Z,7.90
2018-01-06T14:23:32.908Z,8.10
2018-01-06T14:24:32.886Z,7.90
2018-01-06T14:26:25.781Z,7.70
2018-01-06T14:27:25.756Z,7.40
2018-01-06T14:29:18.664Z,7.60
2018-01-06T14:30:18.644Z,7.50
2018-01-06T14:32:11.543Z,7.70
2018-01-06T14:33:11.510Z,7.10
2018-01-06T14:35:05.401Z,8.00
2018-01-06T14:36:05.382Z,7.40
2018-01-06T14:37:58.366Z,7.20
2018-01-06T14:38:58.337Z,7.90
2018-01-06T14:40:51.348Z,7.20
2018-01-06T14:41:51.313Z,7.10
2018-01-06T14:43:44.209Z,7.60
2018-01-06T14:44:44.178Z,7.10
2018-01-06T14:46:37.112Z,7.40
2018-01-06T14:47:37.077Z,7.70
2018-01-06T14:49:29.956Z,7.30
2018-01-06T14:50:29.930Z,7.80
2018-01-06T14:52:22.818Z,8.40
2018-01-06T14:53:22.798Z,8.10
2018-01-06T14:55:15.801Z,8.10
2018-01-06T14:56:15.779Z,8.40
2018-01-06T14:58:08.735Z,7.50
2018-01-06T14:59:08.688Z,7.50
2018-01-06T15:01:01.589Z,8.70
2018-01-06T15:02:01.551Z,8.10
2018-01-06T15:03:54.555Z,7.40
2018-01-06T15:04:54.513Z,8.10
2018-01-06T15:06:47.295Z,7.40
2018-01-06T15:07:47.272Z,7.90
2018-01-06T15:09:40.179Z,8.20
2018-01-06T15:10:40.151Z,8.00
2018-01-06T15:12:33.037Z,8.30
2018-01-06T15:13:33.011Z,7.80
2018-01-06T15:15:25.936Z,7.90
2018-01-06T15:16:25.914Z,7.90
2018-01-06T15:18:18.802Z,7.80
2018-01-06T15:19:18.783Z,7.50
2018-01-06T15:21:11.667Z,7.30
2018-01-06T15:22:11.641Z,7.10
2018-01-06T15:24:04.530Z,7.10
2018-01-06T15:25:04.517Z,7.20
2018-01-06T15:26:57.604Z,7.60
2018-01-06T15:27:57.594Z,7.40
2018-01-06T15:29:50.460Z,7.50
2018-01-06T15:30:50.435Z,7.40
2018-01-06T15:32:43.353Z,7.60
2018-01-06T15:33:43.326Z,7.70
2018-01-06T15:35:36.197Z,8.20
2018-01-06T15:36:36.180Z,8.30
2018-01-06T15:38:29.108Z,7.60
2018-01-06T15:39:29.075Z,7.80
2018-01-06T15:41:21.959Z,8.50
2018-01-06T15:42:21.939Z,7.90
2018-01-06T15:44:14.830Z,8.30
2018-01-06T15:45:14.801Z,8.30
2018-01-06T15:47:07.783Z,8.20
2018-01-06T15:48:07.762Z,8.60
2018-01-06T15:50:00.679Z,8.60
2018-01-06T15:51:00.644Z,8.80
2018-01-06T15:52:53.530Z,8.50
2018-01-06T15:53:53.505Z,8.30
2018-01-06T15:55:46.479Z,8.00
2018-01-06T15:56:46.458Z,8.20
2018-01-06T15:58:39.438Z,9.00
2018-01-06T15:59:39.415Z,8.50
2018-01-06T16:01:32.322Z,8.80
2018-01-06T16:02:32.298Z,9.00
2018-01-06T16:04:25.236Z,8.90
2018-01-06T16:05:25.204Z,8.80
2018-01-06T16:07:18.128Z,9.20
2018-01-06T16:08:18.102Z,10.20
2018-01-06T16:10:11.026Z,10.50
2018-01-06T16:11:10.973Z,10.00
2018-01-06T16:13:03.930Z,9.50
2018-01-06T16:14:03.922Z,10.30
2018-01-06T16:15:56.839Z,10.10
2018-01-06T16:16:56.809Z,10.30
2018-01-06T16:18:49.674Z,10.50
2018-01-06T16:19:49.690Z,10.00
2018-01-06T16:21:42.613Z,10.30
2018-01-06T16:22:42.564Z,10.20
2018-01-06T16:24:35.494Z,10.00
2018-01-06T16:25:35.478Z,9.60
2018-01-06T16:27:28.411Z,10.20
2018-01-06T16:28:28.375Z,9.20
2018-01-06T16:30:21.263Z,10.60
2018-01-06T16:31:21.332Z,10.50
2018-01-06T16:33:14.148Z,10.30
2018-01-06T16:34:14.117Z,9.90
2018-01-06T16:36:07.064Z,10.60
2018-01-06T16:37:07.097Z,11.00
2018-01-06T16:39:01.419Z,11.00
2018-01-06T16:39:59.982Z,11.30
2018-01-06T16:41:52.915Z,11.20
2018-01-06T16:42:52.980Z,11.50
2018-01-06T16:44:45.844Z,11.70
2018-01-06T16:45:45.779Z,11.70
2018-01-06T16:47:38.717Z,12.20
2018-01-06T16:48:38.791Z,13.10
2018-01-06T16:50:31.644Z,13.80
2018-01-06T16:51:31.623Z,13.70
2018-01-06T16:53:24.526Z,16.70
2018-01-06T16:54:24.545Z,15.80
2018-01-06T16:56:17.406Z,17.00
2018-01-06T16:57:17.382Z,15.40
2018-01-06T16:59:10.287Z,16.20
2018-01-06T17:00:10.271Z,16.20
2018-01-06T17:02:03.136Z,17.20
2018-01-06T17:03:03.117Z,17.10